Terminal Aerodrome Forecast
Issued by NWS Cleveland, OH

Home | Current Version | Previous Version | Text Only | Print | Product List | Glossary Off
Versions: 1 2 3 4 5 6 7 8 9 10 11 12 13 14 15 16

000
FTUS41 KCLE 251131
TAFMFD
TAF
KMFD 251131Z 2512/2612 22005KT 6SM BR BKN250
     FM251400 24006KT P6SM VCSH BKN045 OVC100
     FM251800 26008KT P6SM SCT035 BKN100
     FM260000 26005KT P6SM SKC
      TEMPO 2609/2612 5SM BR=

USA.gov is the U.S. government's official web portal to all federal, state and local government web resources and services.